Time;durP1;ratioP1;P1;durP2;ratioP2;P2;SDS_P1;SDS_P2;PMS_P1;PMS_P2;Temp;Humidity;BMP_temperature;BMP_pressure;BME280_temperature;BME280_humidity;BME280_pressure;Samples;Min_cycle;Max_cycle;Signal;HPM_P1;HPM_P2
2023/03/11 00:01:45;;;;;;;0.50;0.30;;;5.20;99.90;;;;;;5096477;28;20430;-53
2023/03/11 00:04:12;;;;;;;0.50;0.20;;;5.10;99.90;;;;;;5095909;28;20421;-54
2023/03/11 00:06:39;;;;;;;0.40;0.20;;;4.90;99.90;;;;;;5095144;28;20430;-53
2023/03/11 00:09:06;;;;;;;0.40;0.20;;;4.80;99.90;;;;;;5095779;28;20421;-53
2023/03/11 00:11:33;;;;;;;0.47;0.30;;;4.80;99.90;;;;;;5095990;28;20426;-54
2023/03/11 00:14:01;;;;;;;0.40;0.28;;;4.80;99.90;;;;;;5095410;28;20418;-53
2023/03/11 00:16:29;;;;;;;0.60;0.30;;;4.80;99.90;;;;;;5094043;28;20886;-49
2023/03/11 00:18:56;;;;;;;0.40;0.20;;;4.80;99.90;;;;;;5091339;28;20433;-53
2023/03/11 00:21:24;;;;;;;0.40;0.20;;;4.70;99.90;;;;;;5095581;28;20729;-54
2023/03/11 00:23:51;;;;;;;0.40;0.20;;;4.70;99.90;;;;;;5095249;28;20418;-51
2023/03/11 00:26:18;;;;;;;0.47;0.20;;;4.70;99.90;;;;;;5095167;28;20444;-53
2023/03/11 00:28:47;;;;;;;0.40;0.20;;;5.00;99.90;;;;;;5091551;28;20753;-55
2023/03/11 00:31:14;;;;;;;1.00;0.30;;;4.90;99.90;;;;;;5095218;28;20516;-50
2023/03/11 00:33:43;;;;;;;0.73;0.20;;;5.00;99.90;;;;;;5095691;28;20437;-52
2023/03/11 00:36:23;;;;;;;0.80;0.20;;;4.90;99.90;;;;;;5092332;28;20434;-53
2023/03/11 00:38:50;;;;;;;0.40;0.20;;;5.00;99.90;;;;;;5090450;28;20429;-50
2023/03/11 00:41:17;;;;;;;0.70;0.20;;;5.00;99.90;;;;;;5094509;28;20422;-49
2023/03/11 00:43:44;;;;;;;0.40;0.20;;;5.10;99.90;;;;;;5094002;28;20856;-51
2023/03/11 00:46:11;;;;;;;0.50;0.30;;;5.20;99.90;;;;;;5093819;28;20418;-54
2023/03/11 00:48:38;;;;;;;0.68;0.30;;;5.00;99.90;;;;;;5094226;28;20414;-50
2023/03/11 00:51:13;;;;;;;0.55;0.30;;;4.90;99.90;;;;;;5095059;28;20429;-54
2023/03/11 00:53:40;;;;;;;0.60;0.30;;;5.00;99.90;;;;;;5095155;28;20414;-52
2023/03/11 00:56:08;;;;;;;1.00;0.30;;;4.90;99.90;;;;;;5095430;28;20438;-50
2023/03/11 00:58:35;;;;;;;0.90;0.30;;;5.00;99.90;;;;;;5095526;28;20776;-53
2023/03/11 01:01:07;;;;;;;0.40;0.25;;;5.00;99.90;;;;;;5092702;28;20440;-52
2023/03/11 01:03:36;;;;;;;0.80;0.20;;;4.80;99.90;;;;;;5095538;28;20884;-52
2023/03/11 01:06:04;;;;;;;0.70;0.30;;;4.80;99.90;;;;;;5095663;28;20775;-54
2023/03/11 01:08:32;;;;;;;0.50;0.30;;;4.80;99.90;;;;;;5095254;28;20883;-50
2023/03/11 01:11:00;;;;;;;1.00;0.30;;;5.10;99.90;;;;;;5094929;28;20757;-52
2023/03/11 01:13:29;;;;;;;0.60;0.30;;;5.00;99.90;;;;;;5094934;28;20821;-51
2023/03/11 01:15:57;;;;;;;0.40;0.20;;;4.90;99.90;;;;;;5095193;28;20524;-54
2023/03/11 01:18:25;;;;;;;0.63;0.30;;;4.90;99.90;;;;;;5094525;28;20792;-53
2023/03/11 01:20:52;;;;;;;0.50;0.30;;;5.00;99.90;;;;;;5094736;28;20447;-52
2023/03/11 01:23:21;;;;;;;0.50;0.30;;;4.90;99.90;;;;;;5095154;28;20418;-53
2023/03/11 01:25:50;;;;;;;0.50;0.30;;;5.00;99.90;;;;;;5095076;28;20433;-52
2023/03/11 01:28:17;;;;;;;0.50;0.30;;;4.90;99.90;;;;;;5094654;28;20479;-55
2023/03/11 01:30:45;;;;;;;0.50;0.30;;;4.70;99.90;;;;;;5095341;28;20432;-51
2023/03/11 01:33:16;;;;;;;0.60;0.30;;;4.70;99.90;;;;;;5095125;28;20417;-50
2023/03/11 01:35:43;;;;;;;0.75;0.30;;;4.60;99.90;;;;;;5094571;28;20437;-51
2023/03/11 01:38:11;;;;;;;0.50;0.30;;;4.50;99.90;;;;;;5094927;28;20418;-53
2023/03/11 01:40:42;;;;;;;0.90;0.30;;;4.50;99.90;;;;;;5094654;28;20523;-55
2023/03/11 01:43:42;;;;;;;0.60;0.30;;;4.30;99.90;;;;;;5095044;28;20425;-54
2023/03/11 01:46:14;;;;;;;0.50;0.25;;;4.40;99.90;;;;;;5094956;28;20890;-52
2023/03/11 01:48:46;;;;;;;0.60;0.30;;;4.30;99.90;;;;;;5094918;28;20418;-51
2023/03/11 01:51:13;;;;;;;0.50;0.30;;;4.50;99.90;;;;;;5095017;28;20833;-53
2023/03/11 01:53:41;;;;;;;0.40;0.30;;;4.50;99.90;;;;;;5095009;28;20414;-53
2023/03/11 01:56:08;;;;;;;0.90;0.30;;;4.40;99.90;;;;;;5095176;28;20439;-54
2023/03/11 01:58:40;;;;;;;0.90;0.30;;;4.50;99.90;;;;;;5094714;28;20418;-53
2023/03/11 02:01:07;;;;;;;0.90;0.30;;;4.60;99.90;;;;;;5094920;28;20860;-54
2023/03/11 02:03:40;;;;;;;0.47;0.30;;;4.50;99.90;;;;;;5095018;28;20453;-54
2023/03/11 02:06:10;;;;;;;0.50;0.30;;;4.00;99.90;;;;;;5094566;28;20486;-53
2023/03/11 02:08:37;;;;;;;0.40;0.30;;;4.00;99.90;;;;;;5094026;28;20422;-52
2023/03/11 02:11:08;;;;;;;0.80;0.30;;;3.80;99.90;;;;;;5094920;28;20512;-53
2023/03/11 02:13:36;;;;;;;0.60;0.30;;;4.00;99.90;;;;;;5094855;28;20417;-53
2023/03/11 02:16:03;;;;;;;0.50;0.30;;;4.20;99.90;;;;;;5095163;28;20433;-55
2023/03/11 02:18:30;;;;;;;0.50;0.30;;;4.30;99.90;;;;;;5095099;28;20421;-50
2023/03/11 02:21:08;;;;;;;1.80;0.30;;;4.40;99.90;;;;;;5094703;28;20433;-53
2023/03/11 02:23:45;;;;;;;0.60;0.30;;;4.30;99.90;;;;;;5093612;28;20842;-55
2023/03/11 02:26:19;;;;;;;0.60;0.30;;;4.20;99.90;;;;;;5094501;28;20710;-52
2023/03/11 02:28:50;;;;;;;0.40;0.30;;;4.00;99.90;;;;;;5093962;28;20417;-53
2023/03/11 02:31:17;;;;;;;0.50;0.30;;;4.20;99.90;;;;;;5094394;28;20426;-53
2023/03/11 02:33:46;;;;;;;0.60;0.30;;;4.00;99.90;;;;;;5096716;28;20418;-53
2023/03/11 02:36:34;;;;;;;1.30;0.30;;;4.10;99.90;;;;;;5097791;28;20730;-50
2023/03/11 02:39:02;;;;;;;0.40;0.30;;;4.00;99.90;;;;;;5097664;28;20474;-54
2023/03/11 02:41:31;;;;;;;0.77;0.30;;;4.10;99.90;;;;;;5098018;28;20706;-53
2023/03/11 02:44:01;;;;;;;0.40;0.20;;;3.70;99.90;;;;;;5097815;28;20418;-50
2023/03/11 02:46:29;;;;;;;1.30;0.30;;;3.80;99.90;;;;;;5097906;28;20433;-51
2023/03/11 02:48:57;;;;;;;0.75;0.20;;;3.60;99.90;;;;;;5097667;28;20414;-54
2023/03/11 02:51:24;;;;;;;0.93;0.27;;;3.60;99.90;;;;;;5098216;28;20774;-50
2023/03/11 02:53:54;;;;;;;0.40;0.20;;;3.60;99.90;;;;;;5097576;28;20429;-54
2023/03/11 02:56:22;;;;;;;2.00;0.30;;;3.60;99.90;;;;;;5097300;28;20434;-53
2023/03/11 02:58:49;;;;;;;1.20;0.30;;;3.60;99.90;;;;;;5096895;28;20429;-52
2023/03/11 03:01:17;;;;;;;0.90;0.20;;;3.50;99.90;;;;;;5097257;28;20422;-52
2023/03/11 03:03:44;;;;;;;1.45;0.30;;;3.50;99.90;;;;;;5097717;28;20737;-53
2023/03/11 03:06:13;;;;;;;0.40;0.22;;;3.50;99.90;;;;;;5098230;28;20425;-52
2023/03/11 03:08:40;;;;;;;0.80;0.25;;;3.40;99.90;;;;;;5097619;28;20418;-52
2023/03/11 03:11:07;;;;;;;0.50;0.30;;;3.30;99.90;;;;;;5096627;28;20434;-49
2023/03/11 03:13:35;;;;;;;0.40;0.30;;;3.10;99.90;;;;;;5097373;28;20830;-55
2023/03/11 03:16:02;;;;;;;0.57;0.25;;;3.10;99.90;;;;;;5096865;28;20433;-50
2023/03/11 03:18:31;;;;;;;0.50;0.30;;;3.10;99.90;;;;;;5095811;28;20437;-52
2023/03/11 03:20:58;;;;;;;0.95;0.30;;;3.30;99.90;;;;;;5096027;28;20559;-53
2023/03/11 03:23:25;;;;;;;0.50;0.30;;;3.30;99.90;;;;;;5096145;28;20825;-54
2023/03/11 03:25:52;;;;;;;0.47;0.20;;;3.20;99.90;;;;;;5097419;28;20497;-53
2023/03/11 03:28:19;;;;;;;0.60;0.30;;;3.30;99.90;;;;;;5096547;28;20856;-54
2023/03/11 03:30:47;;;;;;;0.40;0.30;;;3.20;99.90;;;;;;5096378;28;20878;-54
2023/03/11 03:33:14;;;;;;;1.20;0.20;;;3.20;99.90;;;;;;5096033;28;20425;-55
2023/03/11 03:35:44;;;;;;;0.80;0.30;;;3.40;99.90;;;;;;5095883;28;20436;-48
2023/03/11 03:38:12;;;;;;;0.88;0.30;;;3.40;99.90;;;;;;5096146;28;20409;-54
2023/03/11 03:40:40;;;;;;;1.10;0.30;;;3.10;99.90;;;;;;5096281;28;20837;-51
2023/03/11 03:43:07;;;;;;;0.55;0.20;;;3.00;99.90;;;;;;5096971;28;20421;-53
2023/03/11 03:45:34;;;;;;;0.90;0.30;;;3.10;99.90;;;;;;5095824;28;20433;-49
2023/03/11 03:48:01;;;;;;;0.50;0.20;;;3.20;99.90;;;;;;5076252;28;20510;-55
2023/03/11 03:50:28;;;;;;;0.80;0.40;;;3.30;99.90;;;;;;5075792;28;20427;-50
2023/03/11 03:52:57;;;;;;;0.70;0.30;;;3.20;99.90;;;;;;5075089;28;20419;-50
2023/03/11 03:55:24;;;;;;;1.20;0.30;;;3.10;99.90;;;;;;5075179;28;20432;-53
2023/03/11 03:57:51;;;;;;;0.70;0.20;;;3.00;99.90;;;;;;5076199;28;20502;-54
2023/03/11 04:00:19;;;;;;;0.90;0.20;;;3.10;99.90;;;;;;5075700;28;20442;-52
2023/03/11 04:02:46;;;;;;;1.00;0.22;;;3.00;99.90;;;;;;5076129;28;20840;-51
2023/03/11 04:05:13;;;;;;;0.88;0.20;;;2.90;99.90;;;;;;5075857;28;20430;-54
2023/03/11 04:07:40;;;;;;;1.30;0.22;;;3.00;99.90;;;;;;5075364;28;20723;-52
2023/03/11 04:10:10;;;;;;;0.70;0.30;;;3.10;99.90;;;;;;5073179;28;20436;-55
2023/03/11 04:12:37;;;;;;;0.60;0.20;;;3.40;99.90;;;;;;5075686;28;20823;-52
2023/03/11 04:15:06;;;;;;;0.43;0.20;;;3.50;99.90;;;;;;5074478;28;20693;-51
2023/03/11 04:17:33;;;;;;;0.40;0.20;;;3.40;99.90;;;;;;5074590;28;20943;-51
2023/03/11 04:20:00;;;;;;;0.40;0.20;;;3.30;99.90;;;;;;5074659;28;20859;-51
2023/03/11 04:22:27;;;;;;;0.52;0.20;;;3.50;99.90;;;;;;5074429;28;20866;-51
2023/03/11 04:24:54;;;;;;;1.00;0.30;;;3.40;99.90;;;;;;5074343;28;20426;-54
2023/03/11 04:27:23;;;;;;;0.80;0.30;;;2.90;99.90;;;;;;5065491;28;20429;-56
2023/03/11 04:29:50;;;;;;;1.40;0.30;;;2.70;99.90;;;;;;5054839;28;20519;-54
2023/03/11 04:32:17;;;;;;;0.80;0.20;;;2.70;99.90;;;;;;5054906;28;20440;-53
2023/03/11 04:34:44;;;;;;;0.70;0.30;;;3.20;99.90;;;;;;5054932;28;20435;-53
2023/03/11 04:37:11;;;;;;;0.60;0.20;;;3.30;99.90;;;;;;5068362;28;20447;-54
2023/03/11 04:39:38;;;;;;;0.40;0.20;;;3.30;99.90;;;;;;5074850;28;20427;-54
2023/03/11 04:42:05;;;;;;;0.50;0.20;;;3.40;99.90;;;;;;5074472;28;20423;-51
2023/03/11 04:44:35;;;;;;;1.30;0.30;;;3.20;99.90;;;;;;5074066;28;20451;-55
2023/03/11 04:47:02;;;;;;;0.90;0.30;;;3.00;99.90;;;;;;5066710;28;20423;-53
2023/03/11 04:49:29;;;;;;;0.60;0.20;;;2.90;99.90;;;;;;5074928;28;20426;-55
2023/03/11 04:51:56;;;;;;;0.80;0.30;;;2.90;99.90;;;;;;5075673;28;20435;-52
2023/03/11 04:54:23;;;;;;;0.68;0.22;;;2.80;99.90;;;;;;5074879;28;20423;-49
2023/03/11 04:56:50;;;;;;;1.40;0.30;;;2.70;99.90;;;;;;5074470;28;20462;-53
2023/03/11 04:59:17;;;;;;;0.60;0.30;;;3.00;99.90;;;;;;5074940;28;20426;-54
2023/03/11 05:01:46;;;;;;;0.80;0.30;;;2.90;99.90;;;;;;5075018;28;20434;-52
2023/03/11 05:04:13;;;;;;;0.80;0.30;;;2.80;99.90;;;;;;5075144;28;20426;-49
2023/03/11 05:06:40;;;;;;;0.80;0.30;;;2.60;99.90;;;;;;5073856;28;20423;-51
2023/03/11 05:09:07;;;;;;;0.75;0.30;;;2.70;99.90;;;;;;5073841;28;20420;-51
2023/03/11 05:11:34;;;;;;;0.40;0.30;;;2.70;99.90;;;;;;5073009;28;20547;-50
2023/03/11 05:14:01;;;;;;;0.60;0.30;;;2.60;99.90;;;;;;5072212;28;20434;-53
2023/03/11 05:16:29;;;;;;;1.15;0.20;;;2.70;99.90;;;;;;5072039;28;20436;-55
2023/03/11 05:18:57;;;;;;;0.50;0.20;;;2.70;99.90;;;;;;5073261;28;20814;-54
2023/03/11 05:21:24;;;;;;;0.40;0.20;;;2.80;99.90;;;;;;5073524;28;20423;-49
2023/03/11 05:23:51;;;;;;;1.60;0.30;;;3.10;99.90;;;;;;5074768;28;20420;-54
2023/03/11 05:26:18;;;;;;;0.60;0.20;;;3.30;99.90;;;;;;5074847;28;20419;-49
2023/03/11 05:28:45;;;;;;;0.80;0.30;;;3.10;99.90;;;;;;5075074;28;20723;-49
2023/03/11 05:31:13;;;;;;;0.60;0.30;;;2.90;99.90;;;;;;5075001;28;20438;-50
2023/03/11 05:33:40;;;;;;;0.70;0.30;;;2.60;99.90;;;;;;5075162;28;20473;-52
2023/03/11 05:36:10;;;;;;;0.50;0.30;;;2.50;99.90;;;;;;5074767;28;20435;-52
2023/03/11 05:38:38;;;;;;;1.35;0.30;;;2.50;99.90;;;;;;5074477;28;20842;-52
2023/03/11 05:41:06;;;;;;;1.20;0.30;;;2.60;99.90;;;;;;5074546;28;20531;-52
2023/03/11 05:43:33;;;;;;;1.10;0.20;;;2.60;99.90;;;;;;5074712;28;20422;-51
2023/03/11 05:46:00;;;;;;;1.10;0.28;;;2.60;99.90;;;;;;5074288;28;20427;-52
2023/03/11 05:48:27;;;;;;;0.80;0.30;;;2.80;99.90;;;;;;5074042;28;20415;-50
2023/03/11 05:50:54;;;;;;;1.30;0.20;;;3.20;99.90;;;;;;5074652;28;20836;-48
2023/03/11 05:53:24;;;;;;;0.70;0.20;;;3.10;99.90;;;;;;5074567;28;20411;-54
2023/03/11 05:55:57;;;;;;;2.50;0.70;;;3.10;99.90;;;;;;5074889;28;20526;-52
2023/03/11 05:58:24;;;;;;;0.80;0.40;;;2.80;99.90;;;;;;5074864;28;20423;-53
2023/03/11 06:00:51;;;;;;;0.90;0.30;;;2.90;99.90;;;;;;5074519;28;20876;-54
2023/03/11 06:03:19;;;;;;;0.68;0.20;;;2.80;99.90;;;;;;5074104;28;20431;-53
2023/03/11 06:05:46;;;;;;;0.70;0.20;;;2.90;99.90;;;;;;5074621;28;20450;-52
2023/03/11 06:08:14;;;;;;;0.50;0.20;;;3.00;99.90;;;;;;5076025;28;20423;-54
2023/03/11 06:10:43;;;;;;;0.60;0.25;;;3.00;99.90;;;;;;5077219;28;20433;-52
2023/03/11 06:13:10;;;;;;;0.93;0.30;;;3.10;99.90;;;;;;5076592;28;20502;-53
2023/03/11 06:15:37;;;;;;;1.35;0.28;;;3.20;99.90;;;;;;5077322;28;20431;-51
2023/03/11 06:18:05;;;;;;;1.70;0.40;;;3.30;99.90;;;;;;5077372;28;20435;-51
2023/03/11 06:20:32;;;;;;;2.00;0.30;;;3.30;99.90;;;;;;5077774;28;20434;-49
2023/03/11 06:22:59;;;;;;;1.50;0.30;;;3.00;99.90;;;;;;5077206;28;20415;-52
2023/03/11 06:25:26;;;;;;;1.10;0.20;;;3.00;99.90;;;;;;5077431;28;20427;-52
2023/03/11 06:27:55;;;;;;;0.80;0.30;;;2.80;99.90;;;;;;5077914;28;20506;-51
2023/03/11 06:30:23;;;;;;;1.20;0.30;;;2.80;99.90;;;;;;5077952;28;20527;-50
2023/03/11 06:32:50;;;;;;;0.50;0.28;;;3.00;99.90;;;;;;5077020;28;20430;-51
2023/03/11 06:35:18;;;;;;;0.75;0.30;;;2.80;99.90;;;;;;5077393;28;20430;-48
2023/03/11 06:37:45;;;;;;;1.10;0.30;;;2.90;99.90;;;;;;5077819;28;20454;-53
2023/03/11 06:40:12;;;;;;;0.80;0.40;;;2.90;99.90;;;;;;5077634;28;20426;-53
2023/03/11 06:42:40;;;;;;;1.20;0.30;;;2.90;99.90;;;;;;5077493;28;20840;-53
2023/03/11 06:45:09;;;;;;;0.90;0.30;;;3.00;99.90;;;;;;5079632;28;20441;-53
2023/03/11 06:47:36;;;;;;;0.80;0.30;;;3.30;99.90;;;;;;5094989;28;20737;-54
2023/03/11 06:50:06;;;;;;;1.13;0.50;;;3.40;99.90;;;;;;5095310;28;20414;-53
2023/03/11 06:52:33;;;;;;;0.70;0.30;;;3.30;99.90;;;;;;5097405;28;20438;-53
2023/03/11 06:55:00;;;;;;;0.50;0.30;;;3.30;99.90;;;;;;5097605;28;20424;-51
2023/03/11 06:57:28;;;;;;;0.70;0.20;;;3.50;99.90;;;;;;5093259;28;20453;-52
2023/03/11 06:59:55;;;;;;;0.80;0.30;;;3.70;99.90;;;;;;5095760;28;20425;-53
2023/03/11 07:02:23;;;;;;;0.75;0.20;;;3.80;99.90;;;;;;5095349;28;20416;-55
2023/03/11 07:04:51;;;;;;;0.70;0.30;;;3.80;99.90;;;;;;5095394;28;20418;-55
2023/03/11 07:07:19;;;;;;;0.70;0.40;;;3.70;99.90;;;;;;5087118;28;20442;-54
2023/03/11 07:09:46;;;;;;;0.70;0.30;;;3.50;99.90;;;;;;5089170;28;20505;-53
2023/03/11 07:12:13;;;;;;;0.50;0.20;;;3.40;99.90;;;;;;5080630;28;20470;-52
2023/03/11 07:14:41;;;;;;;0.70;0.30;;;3.40;99.90;;;;;;5080112;28;20504;-53
2023/03/11 07:17:08;;;;;;;0.70;0.30;;;3.30;99.90;;;;;;5089992;28;20438;-54
2023/03/11 07:19:36;;;;;;;1.08;0.30;;;3.20;99.90;;;;;;5083974;28;20418;-53
2023/03/11 07:22:03;;;;;;;1.08;0.30;;;3.20;99.90;;;;;;5083944;28;20431;-53
2023/03/11 07:24:30;;;;;;;1.67;0.40;;;3.10;99.90;;;;;;5092771;28;20452;-53
2023/03/11 07:26:57;;;;;;;2.50;0.40;;;3.00;99.90;;;;;;5085812;28;20710;-51
2023/03/11 07:29:25;;;;;;;1.40;0.30;;;3.00;99.90;;;;;;5087900;28;20420;-51
2023/03/11 07:31:52;;;;;;;1.10;0.20;;;2.90;99.90;;;;;;5088131;28;20845;-51
2023/03/11 07:34:19;;;;;;;0.50;0.20;;;3.00;99.90;;;;;;5093882;28;20438;-53
2023/03/11 07:36:47;;;;;;;0.60;0.30;;;3.20;99.90;;;;;;5079271;28;20435;-52
2023/03/11 07:39:16;;;;;;;0.90;0.30;;;3.20;99.90;;;;;;5088750;28;20430;-52
2023/03/11 07:41:44;;;;;;;0.98;0.20;;;3.20;99.90;;;;;;5083252;28;20425;-49
2023/03/11 07:44:13;;;;;;;0.60;0.20;;;3.30;99.90;;;;;;5088260;28;20422;-50
2023/03/11 07:46:40;;;;;;;0.90;0.30;;;3.30;99.90;;;;;;5077889;28;20427;-52
2023/03/11 07:49:07;;;;;;;0.50;0.30;;;3.60;99.90;;;;;;5089764;28;20411;-55
2023/03/11 07:51:37;;;;;;;1.02;0.30;;;3.60;99.90;;;;;;5084618;28;20430;-54
2023/03/11 07:54:06;;;;;;;0.55;0.30;;;3.80;99.90;;;;;;5095821;28;20781;-53
2023/03/11 07:56:34;;;;;;;1.65;0.30;;;3.90;99.90;;;;;;5093572;28;20857;-55
2023/03/11 07:59:04;;;;;;;1.10;0.30;;;3.90;99.90;;;;;;5089439;28;20870;-51
2023/03/11 08:01:35;;;;;;;0.70;0.20;;;4.00;99.90;;;;;;5082855;28;20432;-53
2023/03/11 08:04:03;;;;;;;1.00;0.20;;;4.20;99.90;;;;;;5087052;28;20849;-51
2023/03/11 08:06:33;;;;;;;1.50;0.40;;;4.10;99.90;;;;;;5090397;28;20449;-52
2023/03/11 08:09:02;;;;;;;0.50;0.30;;;4.10;99.90;;;;;;5092644;28;21058;-52
2023/03/11 08:11:31;;;;;;;0.50;0.30;;;4.00;99.90;;;;;;5093523;28;20499;-52
2023/03/11 08:13:58;;;;;;;1.30;0.30;;;4.20;99.90;;;;;;5093334;28;20425;-49
2023/03/11 08:16:26;;;;;;;3.80;0.40;;;4.70;99.90;;;;;;5092591;28;20426;-52
2023/03/11 08:18:53;;;;;;;0.85;0.30;;;4.70;99.90;;;;;;5092010;28;20422;-52
2023/03/11 08:21:25;;;;;;;1.48;0.30;;;5.30;99.90;;;;;;5082749;28;20430;-52
2023/03/11 08:23:52;;;;;;;4.50;0.30;;;5.00;99.90;;;;;;5088351;28;20503;-49
2023/03/11 08:26:21;;;;;;;1.38;0.30;;;5.00;99.90;;;;;;5094132;28;20441;-50
2023/03/11 08:28:50;;;;;;;1.20;0.30;;;4.80;99.90;;;;;;5092141;28;20420;-51
2023/03/11 08:31:19;;;;;;;0.82;0.30;;;5.00;99.90;;;;;;5094439;28;20437;-54
2023/03/11 08:33:49;;;;;;;0.70;0.38;;;5.30;99.90;;;;;;5093430;28;20426;-54
2023/03/11 08:36:16;;;;;;;0.90;0.30;;;5.90;99.90;;;;;;5093239;28;20511;-55
2023/03/11 08:38:44;;;;;;;0.40;0.20;;;5.70;99.90;;;;;;5087394;28;20426;-56
2023/03/11 08:41:11;;;;;;;1.10;0.20;;;5.10;99.90;;;;;;5090252;28;20434;-55
2023/03/11 08:43:38;;;;;;;0.90;0.30;;;4.80;99.90;;;;;;5090910;28;20825;-54
2023/03/11 08:46:07;;;;;;;0.68;0.20;;;4.80;99.90;;;;;;5089193;28;20866;-54
2023/03/11 08:48:34;;;;;;;1.40;0.20;;;5.00;99.90;;;;;;5089189;28;20852;-54
2023/03/11 08:51:02;;;;;;;0.75;0.30;;;5.30;99.90;;;;;;5081690;28;20431;-56
2023/03/11 08:53:29;;;;;;;1.92;0.30;;;5.30;99.90;;;;;;5089068;28;20418;-54
2023/03/11 08:55:56;;;;;;;0.80;0.40;;;5.40;99.90;;;;;;5089052;28;20437;-52
2023/03/11 08:58:23;;;;;;;1.40;0.40;;;5.50;99.90;;;;;;5090880;28;20434;-54
2023/03/11 09:00:50;;;;;;;1.70;0.30;;;5.70;99.90;;;;;;5090896;28;20429;-49
2023/03/11 09:03:19;;;;;;;3.10;0.40;;;5.90;99.90;;;;;;5077388;28;20851;-53
2023/03/11 09:05:46;;;;;;;0.83;0.40;;;6.00;99.90;;;;;;5088570;28;20456;-54
2023/03/11 09:08:13;;;;;;;1.23;0.38;;;5.80;99.90;;;;;;5074675;28;20701;-56
2023/03/11 09:10:40;;;;;;;1.58;0.30;;;5.50;99.90;;;;;;5080035;28;20435;-54
2023/03/11 09:13:07;;;;;;;0.90;0.40;;;5.20;99.90;;;;;;5084780;28;20417;-53
2023/03/11 09:15:35;;;;;;;1.00;0.30;;;4.80;99.90;;;;;;5083351;28;20440;-54
2023/03/11 09:18:02;;;;;;;1.30;0.30;;;5.00;99.90;;;;;;5076026;28;20513;-53
2023/03/11 09:20:30;;;;;;;1.75;0.30;;;5.10;99.90;;;;;;5085947;28;20438;-54
2023/03/11 09:22:58;;;;;;;0.68;0.20;;;5.20;99.90;;;;;;5083762;28;20745;-54
2023/03/11 09:25:25;;;;;;;0.50;0.20;;;4.90;99.90;;;;;;5091905;28;20425;-54
2023/03/11 09:27:52;;;;;;;0.70;0.30;;;5.00;99.90;;;;;;5084087;28;20919;-54
2023/03/11 09:30:19;;;;;;;2.40;0.30;;;4.90;99.90;;;;;;5081119;28;20464;-54
2023/03/11 09:32:46;;;;;;;0.80;0.40;;;5.20;99.90;;;;;;5079769;28;20879;-52
2023/03/11 09:35:15;;;;;;;0.55;0.20;;;5.10;99.90;;;;;;5088262;28;20428;-54
2023/03/11 09:37:44;;;;;;;1.45;0.40;;;5.30;99.90;;;;;;5083710;28;20422;-54
2023/03/11 09:40:15;;;;;;;1.60;0.40;;;5.50;99.90;;;;;;5087806;28;20897;-54
2023/03/11 09:42:50;;;;;;;1.88;0.40;;;5.50;99.90;;;;;;5081830;28;20452;-56
2023/03/11 09:45:21;;;;;;;1.98;0.40;;;5.70;99.90;;;;;;5094201;28;20436;-56
2023/03/11 09:48:04;;;;;;;1.30;0.40;;;6.10;99.90;;;;;;5096509;28;20437;-52
2023/03/11 09:50:34;;;;;;;1.60;0.50;;;6.50;99.90;;;;;;5086590;28;20880;-57
2023/03/11 09:53:18;;;;;;;1.00;0.40;;;6.40;99.90;;;;;;5092049;28;20433;-54
2023/03/11 09:55:47;;;;;;;1.40;0.40;;;6.20;99.90;;;;;;5091769;28;20433;-55
2023/03/11 09:58:21;;;;;;;1.63;0.30;;;6.10;99.90;;;;;;5083118;28;20435;-55
2023/03/11 10:00:50;;;;;;;1.40;0.30;;;6.10;99.90;;;;;;5092808;28;20435;-54
2023/03/11 10:03:34;;;;;;;0.50;0.30;;;6.40;99.90;;;;;;5078154;28;20427;-53
2023/03/11 10:06:13;;;;;;;1.98;0.38;;;6.10;99.90;;;;;;5092782;28;20437;-55
2023/03/11 10:08:47;;;;;;;0.60;0.30;;;6.10;99.90;;;;;;5087110;28;20448;-57
2023/03/11 10:11:26;;;;;;;0.90;0.20;;;6.60;99.90;;;;;;5091524;28;20434;-58
2023/03/11 10:14:02;;;;;;;1.10;0.30;;;6.50;99.90;;;;;;5085204;28;20418;-56
2023/03/11 10:16:36;;;;;;;0.60;0.30;;;6.40;99.90;;;;;;5090517;28;20429;-57
2023/03/11 10:19:16;;;;;;;1.10;0.30;;;6.60;99.90;;;;;;5078509;28;20508;-56
2023/03/11 10:21:50;;;;;;;0.80;0.30;;;6.80;99.90;;;;;;5092440;28;20438;-55
2023/03/11 10:24:44;;;;;;;0.60;0.30;;;6.50;99.90;;;;;;5087469;28;20429;-54
2023/03/11 10:27:17;;;;;;;0.80;0.20;;;6.60;99.90;;;;;;5092940;28;20436;-55
2023/03/11 10:29:53;;;;;;;0.50;0.20;;;6.70;99.90;;;;;;5081218;28;20453;-55
2023/03/11 10:32:25;;;;;;;0.60;0.30;;;6.90;99.90;;;;;;5092326;28;21740;-55
2023/03/11 10:34:57;;;;;;;0.70;0.20;;;7.10;99.90;;;;;;5093778;28;20433;-55
2023/03/11 10:37:27;;;;;;;1.20;0.20;;;7.00;99.90;;;;;;5089062;28;20430;-57
2023/03/11 10:39:57;;;;;;;0.70;0.20;;;7.40;99.90;;;;;;5088340;28;20425;-57
2023/03/11 10:42:28;;;;;;;0.50;0.20;;;7.80;99.90;;;;;;5092099;28;20425;-55
2023/03/11 10:44:55;;;;;;;0.82;0.30;;;7.50;99.90;;;;;;5092704;28;20421;-58
2023/03/11 10:47:24;;;;;;;0.90;0.30;;;7.70;99.90;;;;;;5093578;28;20431;-54
2023/03/11 10:49:52;;;;;;;1.10;0.30;;;8.10;99.90;;;;;;5093201;28;20487;-55
2023/03/11 10:52:20;;;;;;;1.20;0.30;;;8.70;99.90;;;;;;5087259;28;20440;-55
2023/03/11 10:54:58;;;;;;;1.23;0.20;;;9.10;99.90;;;;;;5085970;28;20428;-57
2023/03/11 10:57:29;;;;;;;0.90;0.30;;;8.70;99.90;;;;;;5088231;28;20524;-59
2023/03/11 10:59:57;;;;;;;0.60;0.20;;;8.30;98.80;;;;;;5092796;28;20820;-56
2023/03/11 11:02:27;;;;;;;0.63;0.30;;;8.00;99.90;;;;;;5094849;28;20430;-55
2023/03/11 11:05:27;;;;;;;0.60;0.30;;;7.70;99.90;;;;;;5086463;28;20414;-54
2023/03/11 11:08:04;;;;;;;1.35;0.30;;;7.40;99.90;;;;;;5080637;28;20418;-56
2023/03/11 11:10:33;;;;;;;0.40;0.30;;;7.30;99.90;;;;;;5093948;28;20876;-58
2023/03/11 11:13:03;;;;;;;0.50;0.30;;;7.50;99.90;;;;;;5089826;28;20869;-53
2023/03/11 11:15:32;;;;;;;0.90;0.30;;;7.30;99.90;;;;;;5090686;28;20862;-56
2023/03/11 11:18:01;;;;;;;0.80;0.20;;;7.10;99.80;;;;;;5090919;28;20430;-56
2023/03/11 11:20:30;;;;;;;0.60;0.20;;;7.40;99.90;;;;;;5093888;28;20422;-55
2023/03/11 11:22:59;;;;;;;0.70;0.27;;;7.70;98.50;;;;;;5086496;28;20857;-56
2023/03/11 11:25:37;;;;;;;0.60;0.20;;;8.40;99.90;;;;;;5087791;28;20431;-53
2023/03/11 11:28:17;;;;;;;0.60;0.30;;;9.00;97.00;;;;;;5088729;28;20434;-53
2023/03/11 11:30:54;;;;;;;0.73;0.30;;;9.60;94.90;;;;;;5091755;28;20438;-57
2023/03/11 11:33:27;;;;;;;0.40;0.20;;;9.30;91.00;;;;;;5088746;28;20446;-58
2023/03/11 11:35:57;;;;;;;1.20;0.20;;;8.70;90.20;;;;;;5083500;28;20887;-57
2023/03/11 11:38:26;;;;;;;0.50;0.20;;;8.20;92.00;;;;;;5087373;28;20430;-53
2023/03/11 11:40:55;;;;;;;1.60;0.20;;;7.90;90.40;;;;;;5089550;28;20438;-57
2023/03/11 11:43:34;;;;;;;1.23;0.20;;;7.50;91.30;;;;;;5087758;28;20430;-58
2023/03/11 11:46:07;;;;;;;0.80;0.20;;;6.80;91.80;;;;;;5091041;28;20430;-54
2023/03/11 11:48:41;;;;;;;1.20;0.50;;;6.90;97.40;;;;;;5093285;28;20860;-54
2023/03/11 11:51:16;;;;;;;0.97;0.30;;;6.70;93.30;;;;;;5092971;28;20807;-54
2023/03/11 11:53:48;;;;;;;0.60;0.20;;;6.40;94.50;;;;;;5091613;28;20433;-57
2023/03/11 11:56:15;;;;;;;0.60;0.30;;;7.00;98.90;;;;;;5094749;28;20432;-54
2023/03/11 11:58:44;;;;;;;0.80;0.20;;;7.20;94.80;;;;;;5092986;28;20430;-55
2023/03/11 12:01:16;;;;;;;0.50;0.20;;;7.90;98.00;;;;;;5080760;28;20739;-56
2023/03/11 12:04:21;;;;;;;0.90;0.30;;;8.50;95.10;;;;;;5084658;28;20436;-59
2023/03/11 12:06:54;;;;;;;3.05;1.00;;;9.00;94.20;;;;;;5087763;28;20730;-57
2023/03/11 12:09:30;;;;;;;0.70;0.30;;;9.00;92.10;;;;;;5092964;28;20853;-57
2023/03/11 12:12:08;;;;;;;0.70;0.20;;;8.90;92.30;;;;;;5090487;28;20430;-58
2023/03/11 12:14:43;;;;;;;1.23;0.20;;;8.70;90.60;;;;;;5091404;28;20444;-58
2023/03/11 12:17:13;;;;;;;0.90;0.20;;;7.90;89.30;;;;;;5089340;28;20869;-57
2023/03/11 12:19:44;;;;;;;1.20;0.20;;;7.70;90.00;;;;;;5093023;28;20425;-56
2023/03/11 12:22:41;;;;;;;1.00;0.30;;;7.60;93.30;;;;;;5093617;28;20441;-57
2023/03/11 12:25:27;;;;;;;0.50;0.20;;;7.90;94.80;;;;;;5091894;28;20733;-58
2023/03/11 12:28:00;;;;;;;0.80;0.20;;;7.70;93.40;;;;;;5090974;28;20524;-58
2023/03/11 12:30:31;;;;;;;0.70;0.30;;;8.10;96.60;;;;;;5092988;28;20434;-58
2023/03/11 12:33:03;;;;;;;0.50;0.20;;;8.30;93.40;;;;;;5082666;28;20567;-58
2023/03/11 12:35:32;;;;;;;0.57;0.30;;;8.40;94.30;;;;;;5093663;28;20484;-56
2023/03/11 12:38:06;;;;;;;0.55;0.20;;;8.50;93.40;;;;;;5087433;28;20434;-58
2023/03/11 12:40:48;;;;;;;0.50;0.20;;;8.60;93.10;;;;;;5091111;28;20742;-60
2023/03/11 12:43:28;;;;;;;1.30;0.30;;;8.60;90.10;;;;;;5092296;28;20845;-57
2023/03/11 12:45:58;;;;;;;0.40;0.20;;;8.30;87.20;;;;;;5088002;28;22493;-57
2023/03/11 12:48:36;;;;;;;0.80;0.30;;;8.30;93.30;;;;;;5089641;28;20478;-56
2023/03/11 12:51:05;;;;;;;1.10;0.30;;;8.50;90.90;;;;;;5089938;28;20422;-58
2023/03/11 12:53:46;;;;;;;0.80;0.20;;;8.40;91.80;;;;;;5091832;28;20430;-55
2023/03/11 12:56:27;;;;;;;0.90;0.30;;;8.10;91.30;;;;;;5089108;28;20444;-57
2023/03/11 12:59:24;;;;;;;0.50;0.20;;;8.10;91.30;;;;;;5090287;28;20741;-56
2023/03/11 13:02:04;;;;;;;2.70;1.00;;;8.50;92.80;;;;;;5089887;28;20518;-55
2023/03/11 13:04:42;;;;;;;4.43;2.43;;;8.60;91.00;;;;;;5089120;28;20435;-56
2023/03/11 13:07:42;;;;;;;0.90;0.30;;;8.70;85.90;;;;;;5088122;28;20455;-55
2023/03/11 13:10:16;;;;;;;0.90;0.30;;;8.50;84.50;;;;;;5092641;28;20437;-57
2023/03/11 13:12:45;;;;;;;1.10;0.30;;;8.50;89.00;;;;;;5092297;28;20420;-56